Strona główna
METAR-TAF:

METAR-TAF

Lotnisko :

Port lotniczy Yap

Yap, Mikronezja

Szerokość geograficzna: 09-29N, Długość geograficzna: 138-05E, wysokość: 28 m

Aktualna obserwacja pogody

Raport powstał 38 minut temu, godzina 11:55 UTC
Cisza
Temperatura 28°C
Wilgotność 84%
Ciśnienie 1010 hPa
Widzialność: 19.3 km
Mało chmury na wysokości 1600 ft
Przerywane chmury na wysokości 13000 ft
Zachmurzenie całkowite na wysokości 30000 ft

METAR: PTYA 181155Z 00000KT 12SM FEW016 BKN130 OVC300 28/25 A2982 RMK SLP100 8/171 T02780254 10299 20271 52017

czas: 22:33 (12:33 UTC)

Prognoza

Raport powstał 59 minut temu, godzina 11:34 UTC
Prognoza ważna od 18 godzina 12 UTC do 19 godzina 12 UTC
Wiatr 5 kt od zachodnio-południowy zachód
Widzialność: 10 km
Rozproszone chmury na wysokości 1600 ft
Przerywane chmury na wysokości 13000 ft
przelotny w pobliże

TAF: PTYA 181134Z 1812/1912 24005KT P6SM VCSH SCT016 BKN130

Obserwacja i prognoza pogody dla ponad 4000 lotnisk (raport METAR i TAF).

Dostępne stacje oznaczono żółtymi i czerwonymi punktami na mapie.

Najedź kursorem aby zobaczyć nazwę stacji.

Kliknij aby zobaczyć obserwacje i prognozy pogody.

Aby zmienić mapę: kliknij na zielony przycisk z czarnym krzyżykiem, aby powiększyć; na zielony przycisk z myślnikiem, aby pomniejszyć; na zielone strzałki, aby przejść do map sąsiednich.


METAR-TAF: